createdAt,value
2023-04-14T00:01:37.133Z,6.53
2023-04-14T00:04:03.962Z,6.40
2023-04-14T00:06:31.306Z,6.90
2023-04-14T00:08:58.124Z,6.25
2023-04-14T00:11:24.856Z,6.57
2023-04-14T00:13:51.581Z,5.97
2023-04-14T00:16:18.112Z,6.65
2023-04-14T00:18:44.770Z,6.43
2023-04-14T00:21:11.228Z,5.88
2023-04-14T00:23:37.829Z,6.50
2023-04-14T00:26:04.981Z,6.38
2023-04-14T00:28:31.430Z,5.80
2023-04-14T00:30:57.832Z,5.45
2023-04-14T00:33:24.263Z,5.97
2023-04-14T00:35:50.933Z,5.78
2023-04-14T00:38:17.370Z,5.95
2023-04-14T00:40:43.827Z,5.68
2023-04-14T00:43:10.504Z,6.13
2023-04-14T00:45:44.700Z,6.22
2023-04-14T00:48:12.381Z,5.72
2023-04-14T00:50:39.278Z,5.45
2023-04-14T00:53:05.933Z,6.47
2023-04-14T00:55:33.408Z,5.80
2023-04-14T00:58:01.147Z,6.85
2023-04-14T01:00:28.410Z,6.75
2023-04-14T01:02:55.159Z,6.28
2023-04-14T01:05:21.726Z,5.70
2023-04-14T01:07:49.603Z,5.70
2023-04-14T01:10:16.791Z,5.40
2023-04-14T01:12:46.355Z,5.57
2023-04-14T01:15:34.194Z,5.57
2023-04-14T01:18:15.206Z,5.10
2023-04-14T01:20:44.429Z,4.78
2023-04-14T01:23:21.613Z,5.22
2023-04-14T01:26:09.733Z,5.30
2023-04-14T01:28:55.592Z,5.00
2023-04-14T01:31:37.266Z,4.78
2023-04-14T01:34:14.544Z,4.30
2023-04-14T01:36:51.034Z,5.85
2023-04-14T01:39:21.055Z,4.45
2023-04-14T01:41:52.555Z,4.65
2023-04-14T01:44:22.581Z,4.30
2023-04-14T01:46:56.636Z,4.63
2023-04-14T01:49:24.323Z,4.80
2023-04-14T01:51:52.813Z,4.88
2023-04-14T01:56:52.268Z,4.00
2023-04-14T01:59:21.009Z,4.38
2023-04-14T02:01:50.845Z,4.07
2023-04-14T02:04:22.393Z,4.00
2023-04-14T02:06:51.762Z,4.30
2023-04-14T02:09:20.716Z,4.15
2023-04-14T02:11:50.347Z,4.18
2023-04-14T02:14:19.108Z,5.18
2023-04-14T02:16:48.641Z,4.50
2023-04-14T02:19:19.650Z,4.30
2023-04-14T02:21:49.952Z,5.68
2023-04-14T02:24:16.899Z,4.40
2023-04-14T02:26:56.151Z,4.50
2023-04-14T02:29:24.865Z,4.30
2023-04-14T02:32:06.432Z,4.18
2023-04-14T02:34:47.929Z,3.67
2023-04-14T02:37:22.252Z,4.00
2023-04-14T02:39:56.844Z,4.40
2023-04-14T02:42:26.972Z,3.80
2023-04-14T02:45:02.828Z,4.05
2023-04-14T02:47:34.106Z,4.47
2023-04-14T02:50:03.016Z,4.72
2023-04-14T02:52:31.931Z,4.93
2023-04-14T02:55:00.014Z,4.13
2023-04-14T02:57:27.940Z,4.30
2023-04-14T02:59:57.422Z,4.13
2023-04-14T03:02:25.222Z,3.78
2023-04-14T03:04:53.404Z,3.67
2023-04-14T03:07:21.950Z,4.38
2023-04-14T03:12:21.991Z,3.80
2023-04-14T03:14:49.415Z,3.47
2023-04-14T03:17:18.183Z,3.50
2023-04-14T03:19:48.410Z,4.47
2023-04-14T03:22:17.301Z,4.22
2023-04-14T03:24:44.684Z,4.05
2023-04-14T03:27:15.469Z,4.18
2023-04-14T03:29:48.152Z,4.43
2023-04-14T03:32:17.565Z,4.07
2023-04-14T03:34:48.349Z,3.95
2023-04-14T03:37:17.937Z,4.13
2023-04-14T03:39:47.400Z,3.95
2023-04-14T03:42:14.320Z,4.18
2023-04-14T03:44:46.875Z,3.95
2023-04-14T03:47:14.804Z,3.72
2023-04-14T03:49:47.009Z,4.10
2023-04-14T03:52:16.110Z,4.30
2023-04-14T03:54:44.746Z,4.43
2023-04-14T03:57:13.525Z,4.47
2023-04-14T03:59:41.412Z,3.88
2023-04-14T04:02:12.025Z,3.92
2023-04-14T04:04:40.668Z,4.53
2023-04-14T04:07:10.661Z,3.72
2023-04-14T04:09:39.073Z,4.25
2023-04-14T04:12:07.669Z,4.45
2023-04-14T04:14:38.508Z,3.95
2023-04-14T04:17:07.831Z,4.32
2023-04-14T04:19:36.316Z,4.30
2023-04-14T04:24:36.913Z,4.13
2023-04-14T04:27:04.470Z,4.10
2023-04-14T04:29:33.310Z,3.78
2023-04-14T04:32:00.940Z,3.78
2023-04-14T04:34:31.915Z,4.37
2023-04-14T04:37:01.457Z,3.78
2023-04-14T04:39:29.812Z,4.32
2023-04-14T04:42:06.567Z,4.22
2023-04-14T04:44:33.888Z,4.40
2023-04-14T04:47:01.139Z,4.00
2023-04-14T04:49:28.303Z,4.57
2023-04-14T04:51:56.482Z,4.00
2023-04-14T04:54:23.120Z,4.30
2023-04-14T04:56:50.200Z,4.20
2023-04-14T04:59:16.586Z,4.05
2023-04-14T05:01:44.230Z,4.03
2023-04-14T05:04:11.130Z,4.60
2023-04-14T05:06:38.470Z,4.90
2023-04-14T05:09:05.007Z,4.90
2023-04-14T05:11:32.451Z,4.22
2023-04-14T05:13:58.793Z,3.92
2023-04-14T05:16:26.177Z,3.88
2023-04-14T05:18:52.544Z,3.60
2023-04-14T05:21:19.639Z,4.13
2023-04-14T05:23:47.187Z,4.63
2023-04-14T05:26:38.910Z,4.83
2023-04-14T05:29:03.144Z,4.97
2023-04-14T05:31:29.899Z,4.47
2023-04-14T05:33:56.400Z,5.30
2023-04-14T05:36:22.747Z,4.78
2023-04-14T05:38:51.386Z,4.60
2023-04-14T05:41:17.772Z,4.45
2023-04-14T05:43:44.099Z,6.05
2023-04-14T05:46:10.468Z,6.55
2023-04-14T05:48:38.100Z,5.90
2023-04-14T05:51:04.544Z,6.00
2023-04-14T05:53:30.881Z,5.68
2023-04-14T05:55:57.252Z,6.20
2023-04-14T05:58:24.827Z,5.25
2023-04-14T06:01:01.538Z,7.57
2023-04-14T06:03:28.188Z,4.70
2023-04-14T06:05:55.172Z,6.88
2023-04-14T06:08:22.673Z,6.05
2023-04-14T06:10:50.532Z,5.88
2023-04-14T06:13:18.614Z,5.22
2023-04-14T06:15:45.269Z,5.57
2023-04-14T06:18:11.661Z,6.35
2023-04-14T06:20:38.029Z,5.10
2023-04-14T06:23:08.508Z,5.00
2023-04-14T06:25:35.169Z,4.80
2023-04-14T06:28:04.010Z,4.80
2023-04-14T06:30:32.247Z,5.07
2023-04-14T06:35:33.001Z,3.90
2023-04-14T06:38:01.399Z,4.90
2023-04-14T06:40:32.709Z,4.95
2023-04-14T06:42:59.087Z,4.53
2023-04-14T06:45:32.662Z,4.05
2023-04-14T06:47:59.041Z,4.05
2023-04-14T06:50:25.878Z,4.72
2023-04-14T06:52:52.211Z,4.05
2023-04-14T06:55:21.827Z,4.35
2023-04-14T06:57:50.185Z,4.47
2023-04-14T07:00:19.750Z,4.13
2023-04-14T07:02:46.165Z,3.65
2023-04-14T07:05:12.663Z,4.25
2023-04-14T07:07:45.326Z,4.05
2023-04-14T07:10:12.569Z,4.20
2023-04-14T07:12:39.016Z,3.58
2023-04-14T07:15:06.006Z,4.18
2023-04-14T07:17:32.694Z,4.13
2023-04-14T07:19:59.427Z,4.28
2023-04-14T07:22:26.130Z,3.70
2023-04-14T07:24:53.677Z,4.72
2023-04-14T07:27:20.228Z,4.25
2023-04-14T07:29:47.400Z,4.68
2023-04-14T07:32:14.097Z,4.18
2023-04-14T07:34:43.578Z,4.47
2023-04-14T07:37:11.663Z,5.07
2023-04-14T07:39:40.092Z,4.43
2023-04-14T07:42:06.630Z,5.25
2023-04-14T07:44:35.868Z,4.53
2023-04-14T07:47:03.422Z,4.68
2023-04-14T07:49:30.087Z,4.30
2023-04-14T07:51:56.818Z,4.40
2023-04-14T07:54:23.822Z,4.82
2023-04-14T07:56:51.266Z,4.53
2023-04-14T07:59:17.637Z,4.63
2023-04-14T08:01:46.408Z,4.75
2023-04-14T08:04:13.569Z,3.88
2023-04-14T08:06:40.271Z,3.83
2023-04-14T08:09:09.801Z,4.15
2023-04-14T08:11:36.226Z,3.60
2023-04-14T08:14:04.420Z,3.83
2023-04-14T08:16:30.922Z,3.65
2023-04-14T08:18:58.206Z,3.15
2023-04-14T08:21:24.650Z,3.50
2023-04-14T08:23:54.747Z,3.92
2023-04-14T08:26:21.320Z,3.63
2023-04-14T08:28:47.709Z,3.58
2023-04-14T08:31:14.431Z,3.13
2023-04-14T08:33:41.028Z,3.42
2023-04-14T08:36:07.646Z,3.13
2023-04-14T08:38:36.860Z,3.40
2023-04-14T08:41:06.864Z,3.00
2023-04-14T08:43:33.901Z,2.60
2023-04-14T08:46:01.973Z,2.85
2023-04-14T08:48:32.067Z,2.30
2023-04-14T08:51:31.935Z,3.20
2023-04-14T08:54:01.052Z,3.00
2023-04-14T08:56:34.962Z,2.50
2023-04-14T08:59:08.105Z,3.75
2023-04-14T09:01:38.088Z,3.28
2023-04-14T09:04:06.599Z,3.00
2023-04-14T09:06:38.695Z,3.22
2023-04-14T09:09:07.756Z,2.90
2023-04-14T09:11:34.540Z,2.95
2023-04-14T09:14:02.243Z,3.05
2023-04-14T09:16:29.569Z,3.47
2023-04-14T09:18:57.519Z,3.60
2023-04-14T09:21:53.589Z,3.30
2023-04-14T09:24:24.935Z,3.10
2023-04-14T09:26:52.159Z,3.45
2023-04-14T09:29:18.724Z,3.42
2023-04-14T09:31:46.060Z,2.90
2023-04-14T09:34:18.140Z,2.72
2023-04-14T09:37:05.555Z,3.50
2023-04-14T09:39:36.640Z,2.60
2023-04-14T09:42:04.822Z,2.38
2023-04-14T09:44:31.231Z,3.20
2023-04-14T09:47:02.909Z,2.58
2023-04-14T09:49:30.105Z,2.47
2023-04-14T09:52:08.293Z,2.50
2023-04-14T09:54:35.639Z,2.65
2023-04-14T09:57:02.517Z,2.65
2023-04-14T09:59:37.046Z,2.33
2023-04-14T10:02:06.456Z,2.72
2023-04-14T10:04:33.575Z,2.22
2023-04-14T10:07:00.428Z,2.30
2023-04-14T10:09:29.882Z,2.15
2023-04-14T10:12:16.227Z,2.80
2023-04-14T10:14:43.888Z,2.80
2023-04-14T10:17:10.724Z,3.13
2023-04-14T10:19:38.983Z,2.72
2023-04-14T10:22:06.136Z,2.60
2023-04-14T10:24:32.899Z,2.83
2023-04-14T10:27:02.829Z,2.53
2023-04-14T10:29:30.947Z,2.50
2023-04-14T10:32:06.053Z,2.85
2023-04-14T10:34:33.640Z,3.58
2023-04-14T10:37:15.639Z,2.95
2023-04-14T10:39:43.564Z,3.00
2023-04-14T10:42:10.233Z,2.90
2023-04-14T10:44:36.903Z,3.00
2023-04-14T10:47:06.104Z,3.28
2023-04-14T10:49:34.633Z,2.75
2023-04-14T10:54:53.295Z,2.38
2023-04-14T10:57:27.081Z,3.05
2023-04-14T10:59:55.582Z,2.80
2023-04-14T11:02:54.404Z,3.10
2023-04-14T11:05:21.484Z,3.38
2023-04-14T11:07:51.777Z,3.47
2023-04-14T11:10:27.080Z,3.10
2023-04-14T11:13:26.367Z,2.63
2023-04-14T11:16:09.192Z,3.33
2023-04-14T11:18:45.637Z,3.20
2023-04-14T11:21:15.764Z,3.17
2023-04-14T11:23:44.996Z,2.88
2023-04-14T11:26:14.475Z,2.78
2023-04-14T11:28:43.446Z,3.15
2023-04-14T11:31:12.024Z,2.75
2023-04-14T11:36:07.496Z,3.63
2023-04-14T11:38:40.902Z,3.50
2023-04-14T11:41:10.681Z,2.92
2023-04-14T11:43:37.938Z,3.30
2023-04-14T11:46:05.984Z,3.05
2023-04-14T11:48:32.437Z,3.35
2023-04-14T11:51:03.256Z,3.30
2023-04-14T11:53:30.398Z,2.63
2023-04-14T11:56:00.712Z,2.78
2023-04-14T11:58:28.648Z,3.42
2023-04-14T12:00:57.789Z,4.10
2023-04-14T12:03:29.278Z,3.30
2023-04-14T12:06:01.277Z,2.80
2023-04-14T12:08:30.299Z,2.97
2023-04-14T12:10:57.564Z,3.33
2023-04-14T12:13:24.800Z,3.30
2023-04-14T12:15:52.746Z,3.35
2023-04-14T12:20:56.217Z,2.90
2023-04-14T12:23:23.479Z,2.42
2023-04-14T12:25:50.570Z,2.88
2023-04-14T12:28:29.997Z,2.63
2023-04-14T12:30:59.740Z,3.10
2023-04-14T12:33:28.068Z,2.88
2023-04-14T12:36:15.474Z,3.03
2023-04-14T12:38:42.904Z,2.60
2023-04-14T12:41:10.654Z,2.45
2023-04-14T12:43:38.486Z,2.90
2023-04-14T12:46:07.841Z,3.03
2023-04-14T12:48:44.328Z,2.88
2023-04-14T12:51:17.431Z,3.20
2023-04-14T12:53:46.418Z,2.88
2023-04-14T12:56:19.767Z,3.65
2023-04-14T12:58:47.360Z,3.00
2023-04-14T13:01:19.018Z,2.88
2023-04-14T13:03:54.311Z,2.60
2023-04-14T13:06:23.159Z,2.80
2023-04-14T13:08:54.009Z,3.33
2023-04-14T13:11:22.170Z,3.60
2023-04-14T13:13:50.041Z,3.25
2023-04-14T13:16:18.473Z,3.20
2023-04-14T13:18:47.311Z,2.95
2023-04-14T13:21:14.480Z,2.90
2023-04-14T13:23:41.343Z,2.92
2023-04-14T13:26:07.818Z,3.78
2023-04-14T13:28:34.304Z,3.40
2023-04-14T13:31:01.181Z,3.05
2023-04-14T13:33:27.822Z,3.58
2023-04-14T13:35:55.621Z,3.67
2023-04-14T13:38:22.547Z,3.60
2023-04-14T13:40:49.298Z,3.22
2023-04-14T13:43:18.437Z,3.00
2023-04-14T13:45:45.260Z,3.78
2023-04-14T13:48:11.681Z,3.65
2023-04-14T13:50:38.070Z,3.63
2023-04-14T13:53:04.430Z,3.65
2023-04-14T13:55:31.049Z,3.50
2023-04-14T13:57:57.352Z,3.15
2023-04-14T14:00:23.880Z,3.50
2023-04-14T14:02:52.064Z,3.25
2023-04-14T14:05:18.712Z,3.97
2023-04-14T14:07:45.274Z,3.65
2023-04-14T14:10:12.024Z,3.33
2023-04-14T14:12:38.360Z,3.35
2023-04-14T14:15:05.736Z,3.90
2023-04-14T14:17:32.285Z,3.78
2023-04-14T14:19:59.215Z,3.38
2023-04-14T14:22:32.345Z,3.30
2023-04-14T14:25:10.673Z,2.92
2023-04-14T14:27:37.808Z,3.10
2023-04-14T14:30:04.535Z,3.30
2023-04-14T14:32:31.130Z,3.92
2023-04-14T14:34:58.881Z,3.70
2023-04-14T14:37:25.230Z,4.40
2023-04-14T14:39:51.969Z,5.20
2023-04-14T14:42:18.606Z,3.85
2023-04-14T14:44:45.034Z,4.40
2023-04-14T14:47:11.525Z,4.30
2023-04-14T14:49:43.362Z,4.70
2023-04-14T14:52:15.838Z,4.35
2023-04-14T14:54:42.121Z,4.00
2023-04-14T14:57:08.465Z,4.00
2023-04-14T14:59:34.883Z,4.50
2023-04-14T15:02:01.649Z,3.80
2023-04-14T15:04:28.058Z,3.55
2023-04-14T15:06:54.637Z,4.00
2023-04-14T15:09:21.249Z,4.28
2023-04-14T15:11:47.651Z,3.90
2023-04-14T15:14:14.243Z,4.50
2023-04-14T15:16:40.622Z,5.55
2023-04-14T15:19:07.280Z,4.25
2023-04-14T15:21:34.219Z,3.83
2023-04-14T15:24:01.924Z,3.95
2023-04-14T15:26:28.782Z,3.35
2023-04-14T15:28:55.796Z,4.53
2023-04-14T15:31:22.150Z,4.03
2023-04-14T15:33:48.600Z,4.03
2023-04-14T15:36:14.939Z,3.60
2023-04-14T15:38:41.489Z,3.90
2023-04-14T15:41:08.146Z,3.63
2023-04-14T15:43:34.701Z,3.63
2023-04-14T15:46:01.202Z,4.10
2023-04-14T15:48:29.594Z,3.45
2023-04-14T15:50:56.187Z,3.53
2023-04-14T15:53:22.652Z,3.92
2023-04-14T15:55:49.953Z,3.83
2023-04-14T15:58:16.329Z,3.72
2023-04-14T16:00:42.916Z,3.70
2023-04-14T16:03:09.507Z,3.72
2023-04-14T16:05:36.135Z,3.85
2023-04-14T16:08:02.504Z,3.58
2023-04-14T16:10:29.207Z,3.55
2023-04-14T16:12:55.629Z,3.85
2023-04-14T16:15:22.984Z,3.55
2023-04-14T16:17:49.674Z,3.97
2023-04-14T16:20:18.221Z,3.67
2023-04-14T16:22:44.652Z,3.83
2023-04-14T16:25:11.213Z,3.22
2023-04-14T16:27:38.591Z,3.80
2023-04-14T16:30:05.913Z,2.97
2023-04-14T16:32:32.332Z,3.88
2023-04-14T16:34:58.742Z,3.45
2023-04-14T16:37:26.292Z,3.85
2023-04-14T16:39:56.429Z,3.30
2023-04-14T16:42:24.506Z,2.88
2023-04-14T16:44:54.608Z,3.47
2023-04-14T16:47:21.686Z,3.03
2023-04-14T16:49:50.300Z,2.88
2023-04-14T16:54:43.790Z,2.83
2023-04-14T16:57:10.659Z,2.80
2023-04-14T16:59:37.203Z,3.10
2023-04-14T17:02:03.713Z,4.13
2023-04-14T17:04:30.337Z,3.25
2023-04-14T17:06:57.136Z,3.15
2023-04-14T17:09:23.719Z,2.70
2023-04-14T17:11:50.081Z,2.53
2023-04-14T17:14:16.851Z,3.00
2023-04-14T17:16:43.263Z,2.67
2023-04-14T17:19:09.904Z,2.13
2023-04-14T17:21:38.540Z,2.33
2023-04-14T17:24:05.234Z,2.20
2023-04-14T17:26:31.566Z,1.98
2023-04-14T17:28:57.970Z,2.25
2023-04-14T17:31:24.447Z,2.22
2023-04-14T17:33:51.371Z,2.72
2023-04-14T17:36:18.348Z,3.10
2023-04-14T17:38:45.748Z,2.70
2023-04-14T17:41:12.985Z,3.13
2023-04-14T17:43:41.154Z,2.92
2023-04-14T17:46:10.831Z,3.05
2023-04-14T17:48:37.505Z,2.92
2023-04-14T17:51:04.836Z,3.05
2023-04-14T17:53:31.357Z,3.47
2023-04-14T17:55:57.953Z,3.00
2023-04-14T17:58:25.315Z,3.25
2023-04-14T18:00:52.046Z,3.20
2023-04-14T18:03:18.703Z,3.03
2023-04-14T18:05:45.382Z,3.05
2023-04-14T18:08:12.078Z,2.85
2023-04-14T18:10:39.178Z,2.63
2023-04-14T18:13:05.623Z,2.80
2023-04-14T18:15:32.408Z,2.58
2023-04-14T18:17:58.810Z,2.67
2023-04-14T18:20:26.594Z,2.75
2023-04-14T18:22:57.580Z,3.20
2023-04-14T18:25:23.954Z,3.40
2023-04-14T18:30:20.236Z,5.00
2023-04-14T18:32:46.674Z,3.90
2023-04-14T18:35:13.474Z,4.05
2023-04-14T18:37:39.839Z,4.07
2023-04-14T18:40:07.046Z,4.03
2023-04-14T18:42:36.040Z,4.22
2023-04-14T18:45:03.743Z,3.67
2023-04-14T18:47:30.342Z,3.92
2023-04-14T18:49:56.842Z,4.60
2023-04-14T18:52:23.153Z,4.53
2023-04-14T18:54:49.626Z,4.07
2023-04-14T18:57:16.297Z,4.35
2023-04-14T18:59:42.868Z,4.05
2023-04-14T19:02:13.209Z,4.00
2023-04-14T19:04:40.976Z,3.95
2023-04-14T19:07:08.099Z,3.90
2023-04-14T19:09:36.080Z,4.10
2023-04-14T19:12:02.804Z,3.72
2023-04-14T19:14:29.661Z,3.85
2023-04-14T19:16:56.318Z,3.58
2023-04-14T19:19:22.696Z,3.80
2023-04-14T19:21:49.017Z,3.35
2023-04-14T19:24:15.426Z,3.05
2023-04-14T19:26:41.782Z,3.55
2023-04-14T19:29:08.415Z,3.40
2023-04-14T19:31:35.039Z,3.50
2023-04-14T19:34:01.497Z,3.60
2023-04-14T19:36:29.094Z,3.83
2023-04-14T19:38:56.114Z,3.22
2023-04-14T19:41:22.492Z,3.13
2023-04-14T19:43:48.977Z,3.90
2023-04-14T19:46:16.840Z,4.03
2023-04-14T19:48:44.529Z,3.78
2023-04-14T19:51:11.345Z,5.40
2023-04-14T19:53:37.733Z,7.00
2023-04-14T19:56:05.659Z,10.95
2023-04-14T19:58:32.837Z,9.10
2023-04-14T20:01:01.185Z,7.90
2023-04-14T20:03:28.199Z,6.22
2023-04-14T20:05:56.602Z,5.45
2023-04-14T20:08:25.078Z,4.18
2023-04-14T20:13:21.311Z,5.18
2023-04-14T20:15:49.374Z,4.82
2023-04-14T20:18:17.738Z,4.90
2023-04-14T20:20:45.106Z,4.75
2023-04-14T20:23:11.548Z,5.10
2023-04-14T20:25:38.818Z,5.20
2023-04-14T20:28:07.376Z,4.88
2023-04-14T20:33:04.347Z,4.70
2023-04-14T20:35:31.069Z,5.82
2023-04-14T20:37:57.433Z,5.00
2023-04-14T20:40:24.093Z,5.60
2023-04-14T20:42:50.726Z,5.50
2023-04-14T20:45:17.451Z,4.60
2023-04-14T20:47:43.889Z,5.25
2023-04-14T20:50:10.500Z,4.68
2023-04-14T20:52:37.134Z,5.45
2023-04-14T20:55:03.857Z,4.72
2023-04-14T20:57:30.245Z,4.25
2023-04-14T20:59:56.680Z,4.57
2023-04-14T21:02:23.283Z,4.53
2023-04-14T21:04:50.149Z,4.55
2023-04-14T21:07:17.075Z,4.57
2023-04-14T21:09:43.702Z,4.80
2023-04-14T21:12:14.349Z,5.00
2023-04-14T21:15:30.902Z,4.90
2023-04-14T21:17:29.213Z,4.82
2023-04-14T21:19:55.999Z,4.90
2023-04-14T21:22:22.570Z,4.93
2023-04-14T21:24:49.577Z,4.75
2023-04-14T21:27:17.465Z,4.50
2023-04-14T21:29:44.643Z,4.32
2023-04-14T21:32:11.950Z,4.95
2023-04-14T21:34:38.465Z,5.18
2023-04-14T21:37:04.914Z,4.60
2023-04-14T21:39:33.219Z,4.40
2023-04-14T21:42:02.044Z,4.90
2023-04-14T21:44:28.593Z,5.28
2023-04-14T21:46:55.700Z,5.13
2023-04-14T21:49:22.492Z,4.93
2023-04-14T21:51:52.514Z,5.18
2023-04-14T21:54:19.528Z,5.57
2023-04-14T21:56:46.194Z,5.00
2023-04-14T21:59:12.571Z,4.90
2023-04-14T22:01:39.792Z,5.43
2023-04-14T22:04:06.585Z,5.00
2023-04-14T22:06:35.227Z,5.40
2023-04-14T22:11:30.731Z,4.97
2023-04-14T22:13:58.256Z,5.60
2023-04-14T22:16:25.426Z,6.10
2023-04-14T22:18:52.062Z,5.90
2023-04-14T22:21:18.536Z,6.88
2023-04-14T22:23:45.210Z,5.93
2023-04-14T22:26:12.778Z,6.15
2023-04-14T22:28:39.914Z,6.18
2023-04-14T22:31:06.830Z,6.00
2023-04-14T22:33:33.491Z,5.82
2023-04-14T22:36:05.698Z,6.32
2023-04-14T22:38:33.717Z,6.05
2023-04-14T22:41:01.581Z,5.72
2023-04-14T22:43:29.751Z,6.10
2023-04-14T22:45:56.740Z,6.30
2023-04-14T22:48:23.355Z,6.25
2023-04-14T22:50:49.928Z,6.07
2023-04-14T22:53:16.290Z,6.70
2023-04-14T22:55:43.296Z,6.45
2023-04-14T22:58:16.141Z,6.28
2023-04-14T23:00:44.196Z,7.18
2023-04-14T23:03:11.599Z,6.80
2023-04-14T23:05:39.116Z,6.82
2023-04-14T23:08:05.864Z,6.70
2023-04-14T23:10:32.485Z,6.30
2023-04-14T23:12:59.144Z,6.32
2023-04-14T23:15:25.941Z,7.15
2023-04-14T23:17:52.299Z,6.30
2023-04-14T23:20:19.303Z,7.13
2023-04-14T23:22:46.143Z,6.25
2023-04-14T23:25:12.758Z,6.72
2023-04-14T23:27:39.284Z,6.80
2023-04-14T23:30:06.667Z,6.25
2023-04-14T23:32:33.106Z,7.00
2023-04-14T23:34:59.763Z,6.72
2023-04-14T23:37:26.146Z,6.75
2023-04-14T23:39:52.523Z,6.65
2023-04-14T23:42:18.852Z,6.90
2023-04-14T23:44:45.508Z,6.47
2023-04-14T23:47:12.151Z,6.57
2023-04-14T23:49:38.877Z,6.65
2023-04-14T23:52:05.782Z,6.40
2023-04-14T23:54:32.612Z,6.78
2023-04-14T23:56:58.939Z,6.40
2023-04-14T23:59:25.326Z,6.80
